Kaumakani, HI (96747)

3:39 AM HST on August 30, 2015 (GMT -1000)
Waimea, Hi 96796 | | Change Station
CLOSE
Current Station
Personal Weather Station
Location: Waimea, HI
Elevation: 60 ft
Nearby Weather Stations

Elev 60 ft 21.95 °N, 159.67 °W | Updated 34 seconds ago

Partly Cloudy
Partly Cloudy
75.8 °F
Feels Like 76 °F
N
4.0
Wind Variable Wind from ENE
Gusts 9.0 mph

Today
High -- | Low -- °F
--% Chance of Precip.
Yesterday
High -- | Low -- °F
Precip. -- in
6:21 AM 6:56 PM
Full, 99% visible
Pressure 29.88 in
Visibility 10.0 miles
Clouds Few 4800 ft
Heat Index 76 °F
Dew Point 72 °F
Humidity 87%
Rainfall 0.00 in
Snow Depth Not available.
UV 0 out of 12
Pollen Not available.
Air Quality Not available.
Flu Activity Not available.
METAR PHBK 301256Z AUTO 08004KT 10SM FEW048 26/22 A2988 RMK AO2 SLP119 T02560222
Pressure 29.88 in
Visibility 10.0 miles
Clouds Few 4800 ft
Heat Index 76 °F
Dew Point 72 °F
Humidity 87%
Rainfall 0.00 in
Snow Depth Not available.
UV 0 out of 12
Pollen Not available.
Air Quality Not available.
Flu Activity Not available.
METAR PHBK 301256Z AUTO 08004KT 10SM FEW048 26/22 A2988 RMK AO2 SLP119 T02560222
Hurricane Ignacio strengthened into a Category 4 hurricane Saturday and its current forecast track takes it just north of The Big Island Monday. While it is not a direct threat to make landfall in Hawaii, a track slightly to the south of its current forecast track could deteriorate weather conditions in the state. See the forecast track

10-Day Weather Forecast

×

Almanac

Astronomy

Aug. 30, 2015 Rise Set
Actual Time
Civil Twilight
Nautical Twilight
Astronomical Twilight
Moon
Length of Visible Light
Length of Day
Tomorrow will be .
, % of the Moon is Illuminated

Today's Extremes

State Highs State Lows

Community

WunderPhotos

Upload Photos

1,850,953 photos uploaded!

WunderBlogs® & News

Nearby

Air Quality

  Air Quality AQ Index Pollutant
Not available.

Snow Depth

Station Depth Elevation

Earthquake Activity

City Distance Mag. Time & Date
Minimum magnitude displayed is 2.5.

Coastal Water Temperatures

Place Temperature

Stations

Nearby Weather Stations

Station Location Temp. Windchill Dew Point Humidity Wind Precip. Elev Updated Type